sensor_id;sensor_type;location;lat;lon;timestamp;pressure;altitude;pressure_sealevel;temperature;humidity
83308;BME280;73223;48.584;13.460;2024-01-15T00:01:52;95504.38;;;-2.87;100.00
83308;BME280;73223;48.584;13.460;2024-01-15T00:04:17;95503.50;;;-2.83;100.00
83308;BME280;73223;48.584;13.460;2024-01-15T00:06:42;95501.81;;;-3.16;100.00
83308;BME280;73223;48.584;13.460;2024-01-15T00:09:08;95500.09;;;-2.64;100.00
83308;BME280;73223;48.584;13.460;2024-01-15T00:11:33;95506.03;;;-2.82;100.00
83308;BME280;73223;48.584;13.460;2024-01-15T00:13:58;95506.88;;;-2.61;100.00
83308;BME280;73223;48.584;13.460;2024-01-15T00:16:24;95513.63;;;-2.56;100.00
83308;BME280;73223;48.584;13.460;2024-01-15T00:18:49;95513.59;;;-2.50;100.00
83308;BME280;73223;48.584;13.460;2024-01-15T00:21:14;95504.34;;;-2.86;100.00
83308;BME280;73223;48.584;13.460;2024-01-15T00:23:43;95517.03;;;-2.61;100.00
83308;BME280;73223;48.584;13.460;2024-01-15T00:26:11;95515.34;;;-2.77;100.00
83308;BME280;73223;48.584;13.460;2024-01-15T00:28:37;95502.69;;;-2.93;100.00
83308;BME280;73223;48.584;13.460;2024-01-15T00:31:04;95488.31;;;-3.30;100.00
83308;BME280;73223;48.584;13.460;2024-01-15T00:33:29;95498.47;;;-2.89;100.00
83308;BME280;73223;48.584;13.460;2024-01-15T00:35:54;95492.53;;;-2.91;100.00
83308;BME280;73223;48.584;13.460;2024-01-15T00:38:19;95482.41;;;-3.05;100.00
83308;BME280;73223;48.584;13.460;2024-01-15T00:40:45;95476.47;;;-3.02;100.00
83308;BME280;73223;48.584;13.460;2024-01-15T00:43:10;95476.47;;;-3.46;100.00
83308;BME280;73223;48.584;13.460;2024-01-15T00:45:35;95481.47;;;-3.81;100.00
83308;BME280;73223;48.584;13.460;2024-01-15T00:48:01;95476.44;;;-3.56;100.00
83308;BME280;73223;48.584;13.460;2024-01-15T00:50:26;95490.78;;;-3.58;100.00
83308;BME280;73223;48.584;13.460;2024-01-15T00:52:51;95479.03;;;-3.40;100.00
83308;BME280;73223;48.584;13.460;2024-01-15T00:55:17;95485.78;;;-3.17;100.00
83308;BME280;73223;48.584;13.460;2024-01-15T00:57:42;95477.34;;;-3.12;100.00
83308;BME280;73223;48.584;13.460;2024-01-15T01:00:08;95489.94;;;-3.63;100.00
83308;BME280;73223;48.584;13.460;2024-01-15T01:02:34;95477.28;;;-3.58;100.00
83308;BME280;73223;48.584;13.460;2024-01-15T01:04:59;95484.91;;;-3.22;100.00
83308;BME280;73223;48.584;13.460;2024-01-15T01:07:24;95482.41;;;-3.31;100.00
83308;BME280;73223;48.584;13.460;2024-01-15T01:09:50;95475.56;;;-3.71;100.00
83308;BME280;73223;48.584;13.460;2024-01-15T01:12:16;95469.72;;;-3.29;100.00
83308;BME280;73223;48.584;13.460;2024-01-15T01:14:42;95476.44;;;-3.62;100.00
83308;BME280;73223;48.584;13.460;2024-01-15T01:17:07;95475.63;;;-3.61;100.00
83308;BME280;73223;48.584;13.460;2024-01-15T01:19:32;95479.81;;;-3.76;100.00
83308;BME280;73223;48.584;13.460;2024-01-15T01:21:57;95480.63;;;-3.73;100.00
83308;BME280;73223;48.584;13.460;2024-01-15T01:24:23;95476.38;;;-3.88;100.00
83308;BME280;73223;48.584;13.460;2024-01-15T01:26:48;95461.22;;;-3.71;100.00
83308;BME280;73223;48.584;13.460;2024-01-15T01:29:14;95473.03;;;-3.80;100.00
83308;BME280;73223;48.584;13.460;2024-01-15T01:31:45;95473.84;;;-3.89;100.00
83308;BME280;73223;48.584;13.460;2024-01-15T01:34:14;95472.09;;;-4.10;100.00
83308;BME280;73223;48.584;13.460;2024-01-15T01:36:40;95469.50;;;-4.27;100.00
83308;BME280;73223;48.584;13.460;2024-01-15T01:39:05;95479.63;;;-4.24;100.00
83308;BME280;73223;48.584;13.460;2024-01-15T01:41:30;95474.53;;;-4.34;100.00
83308;BME280;73223;48.584;13.460;2024-01-15T01:43:56;95464.41;;;-4.30;100.00
83308;BME280;73223;48.584;13.460;2024-01-15T01:46:22;95478.78;;;-4.24;100.00
83308;BME280;73223;48.584;13.460;2024-01-15T01:48:47;95481.94;;;-4.63;100.00
83308;BME280;73223;48.584;13.460;2024-01-15T01:51:13;95491.25;;;-4.61;100.00
83308;BME280;73223;48.584;13.460;2024-01-15T01:53:38;95487.88;;;-4.58;100.00
83308;BME280;73223;48.584;13.460;2024-01-15T01:56:04;95488.88;;;-4.33;100.00
83308;BME280;73223;48.584;13.460;2024-01-15T01:58:31;95518.06;;;-4.87;100.00
83308;BME280;73223;48.584;13.460;2024-01-15T02:00:58;95498.94;;;-4.39;100.00
83308;BME280;73223;48.584;13.460;2024-01-15T02:03:24;95499.88;;;-4.24;100.00
83308;BME280;73223;48.584;13.460;2024-01-15T02:05:51;95508.16;;;-4.50;100.00
83308;BME280;73223;48.584;13.460;2024-01-15T02:08:18;95505.66;;;-4.49;100.00
83308;BME280;73223;48.584;13.460;2024-01-15T02:10:43;95508.28;;;-4.28;100.00
83308;BME280;73223;48.584;13.460;2024-01-15T02:13:09;95509.88;;;-4.43;100.00
83308;BME280;73223;48.584;13.460;2024-01-15T02:15:34;95510.81;;;-4.32;100.00
83308;BME280;73223;48.584;13.460;2024-01-15T02:18:00;95519.41;;;-3.95;100.00
83308;BME280;73223;48.584;13.460;2024-01-15T02:20:26;95525.28;;;-3.98;100.00
83308;BME280;73223;48.584;13.460;2024-01-15T02:22:51;95533.63;;;-4.18;100.00
83308;BME280;73223;48.584;13.460;2024-01-15T02:25:17;95531.91;;;-4.30;100.00
83308;BME280;73223;48.584;13.460;2024-01-15T02:27:43;95533.53;;;-4.37;100.00
83308;BME280;73223;48.584;13.460;2024-01-15T02:30:11;95537.97;;;-3.87;100.00
83308;BME280;73223;48.584;13.460;2024-01-15T02:32:36;95535.41;;;-3.98;100.00
83308;BME280;73223;48.584;13.460;2024-01-15T02:35:02;95530.34;;;-3.98;100.00
83308;BME280;73223;48.584;13.460;2024-01-15T02:37:27;95539.53;;;-4.21;100.00
83308;BME280;73223;48.584;13.460;2024-01-15T02:39:52;95537.97;;;-3.95;100.00
83308;BME280;73223;48.584;13.460;2024-01-15T02:42:18;95538.75;;;-4.05;100.00
83308;BME280;73223;48.584;13.460;2024-01-15T02:44:43;95553.16;;;-3.87;100.00
83308;BME280;73223;48.584;13.460;2024-01-15T02:47:08;95554.06;;;-3.71;100.00
83308;BME280;73223;48.584;13.460;2024-01-15T02:49:33;95545.59;;;-3.86;100.00
83308;BME280;73223;48.584;13.460;2024-01-15T02:51:59;95554.91;;;-3.69;100.00
83308;BME280;73223;48.584;13.460;2024-01-15T02:54:24;95553.09;;;-4.05;100.00
83308;BME280;73223;48.584;13.460;2024-01-15T02:56:49;95554.03;;;-3.82;100.00
83308;BME280;73223;48.584;13.460;2024-01-15T02:59:15;95563.44;;;-3.38;100.00
83308;BME280;73223;48.584;13.460;2024-01-15T03:01:40;95565.19;;;-3.04;100.00
83308;BME280;73223;48.584;13.460;2024-01-15T03:04:05;95558.47;;;-2.87;100.00
83308;BME280;73223;48.584;13.460;2024-01-15T03:06:30;95563.50;;;-3.09;100.00
83308;BME280;73223;48.584;13.460;2024-01-15T03:08:56;95555.91;;;-3.12;100.00
83308;BME280;73223;48.584;13.460;2024-01-15T03:11:21;95552.53;;;-2.92;100.00
83308;BME280;73223;48.584;13.460;2024-01-15T03:13:46;95546.59;;;-3.13;100.00
83308;BME280;73223;48.584;13.460;2024-01-15T03:16:11;95553.34;;;-3.16;100.00
83308;BME280;73223;48.584;13.460;2024-01-15T03:18:37;95557.59;;;-3.07;100.00
83308;BME280;73223;48.584;13.460;2024-01-15T03:21:02;95560.16;;;-2.95;100.00
83308;BME280;73223;48.584;13.460;2024-01-15T03:23:27;95559.31;;;-2.89;100.00
83308;BME280;73223;48.584;13.460;2024-01-15T03:25:53;95540.69;;;-2.99;100.00
83308;BME280;73223;48.584;13.460;2024-01-15T03:28:18;95549.16;;;-3.10;100.00
83308;BME280;73223;48.584;13.460;2024-01-15T03:30:43;95555.06;;;-2.81;100.00
83308;BME280;73223;48.584;13.460;2024-01-15T03:33:09;95550.00;;;-2.76;100.00
83308;BME280;73223;48.584;13.460;2024-01-15T03:35:34;95545.78;;;-2.71;100.00
83308;BME280;73223;48.584;13.460;2024-01-15T03:37:59;95555.94;;;-2.70;100.00
83308;BME280;73223;48.584;13.460;2024-01-15T03:40:25;95561.81;;;-2.66;100.00
83308;BME280;73223;48.584;13.460;2024-01-15T03:42:50;95558.44;;;-2.99;100.00
83308;BME280;73223;48.584;13.460;2024-01-15T03:45:16;95566.06;;;-2.76;100.00
83308;BME280;73223;48.584;13.460;2024-01-15T03:47:41;95563.53;;;-2.90;100.00
83308;BME280;73223;48.584;13.460;2024-01-15T03:50:06;95561.00;;;-2.53;100.00
83308;BME280;73223;48.584;13.460;2024-01-15T03:52:32;95555.91;;;-3.03;100.00
83308;BME280;73223;48.584;13.460;2024-01-15T03:54:57;95554.22;;;-3.12;100.00
83308;BME280;73223;48.584;13.460;2024-01-15T03:57:22;95557.63;;;-2.70;100.00
83308;BME280;73223;48.584;13.460;2024-01-15T03:59:48;95560.97;;;-2.68;100.00
83308;BME280;73223;48.584;13.460;2024-01-15T04:02:13;95554.22;;;-2.78;100.00
83308;BME280;73223;48.584;13.460;2024-01-15T04:04:43;95561.00;;;-2.56;100.00
83308;BME280;73223;48.584;13.460;2024-01-15T04:07:11;95554.25;;;-2.71;100.00
83308;BME280;73223;48.584;13.460;2024-01-15T04:09:37;95555.91;;;-2.49;100.00
83308;BME280;73223;48.584;13.460;2024-01-15T04:12:02;95560.13;;;-2.61;100.00
83308;BME280;73223;48.584;13.460;2024-01-15T04:14:27;95549.16;;;-2.86;100.00
83308;BME280;73223;48.584;13.460;2024-01-15T04:16:53;95546.59;;;-3.00;100.00
83308;BME280;73223;48.584;13.460;2024-01-15T04:19:19;95549.16;;;-3.09;100.00
83308;BME280;73223;48.584;13.460;2024-01-15T04:21:44;95550.00;;;-3.11;100.00
83308;BME280;73223;48.584;13.460;2024-01-15T04:24:09;95555.91;;;-2.96;100.00
83308;BME280;73223;48.584;13.460;2024-01-15T04:26:34;95558.47;;;-2.93;100.00
83308;BME280;73223;48.584;13.460;2024-01-15T04:29:00;95558.44;;;-2.82;100.00
83308;BME280;73223;48.584;13.460;2024-01-15T04:31:25;95555.06;;;-3.02;100.00
83308;BME280;73223;48.584;13.460;2024-01-15T04:33:52;95565.16;;;-3.19;100.00
83308;BME280;73223;48.584;13.460;2024-01-15T04:36:17;95571.94;;;-3.13;100.00
83308;BME280;73223;48.584;13.460;2024-01-15T04:38:43;95569.47;;;-2.69;100.00
83308;BME280;73223;48.584;13.460;2024-01-15T04:41:12;95565.22;;;-2.72;100.00
83308;BME280;73223;48.584;13.460;2024-01-15T04:43:38;95565.22;;;-2.90;100.00
83308;BME280;73223;48.584;13.460;2024-01-15T04:46:05;95577.88;;;-2.84;100.00
83308;BME280;73223;48.584;13.460;2024-01-15T04:48:30;95569.44;;;-2.56;100.00
83308;BME280;73223;48.584;13.460;2024-01-15T04:50:56;95565.22;;;-2.57;100.00
83308;BME280;73223;48.584;13.460;2024-01-15T04:53:21;95569.44;;;-2.83;100.00
83308;BME280;73223;48.584;13.460;2024-01-15T04:55:46;95570.25;;;-3.16;100.00
83308;BME280;73223;48.584;13.460;2024-01-15T04:58:11;95577.91;;;-2.66;100.00
83308;BME280;73223;48.584;13.460;2024-01-15T05:00:37;95569.44;;;-2.85;100.00
83308;BME280;73223;48.584;13.460;2024-01-15T05:03:02;95570.31;;;-2.89;100.00
83308;BME280;73223;48.584;13.460;2024-01-15T05:05:28;95562.66;;;-2.51;100.00
83308;BME280;73223;48.584;13.460;2024-01-15T05:07:53;95565.22;;;-2.54;100.00
83308;BME280;73223;48.584;13.460;2024-01-15T05:10:18;95555.09;;;-2.76;100.00
83308;BME280;73223;48.584;13.460;2024-01-15T05:12:43;95558.44;;;-2.64;100.00
83308;BME280;73223;48.584;13.460;2024-01-15T05:15:09;95554.25;;;-2.88;100.00
83308;BME280;73223;48.584;13.460;2024-01-15T05:17:34;95557.59;;;-2.61;100.00
83308;BME280;73223;48.584;13.460;2024-01-15T05:20:00;95555.06;;;-2.80;100.00
83308;BME280;73223;48.584;13.460;2024-01-15T05:22:25;95553.34;;;-2.44;100.00
83308;BME280;73223;48.584;13.460;2024-01-15T05:24:50;95556.78;;;-2.91;100.00
83308;BME280;73223;48.584;13.460;2024-01-15T05:27:15;95564.38;;;-2.69;100.00
83308;BME280;73223;48.584;13.460;2024-01-15T05:29:41;95557.59;;;-2.80;100.00
83308;BME280;73223;48.584;13.460;2024-01-15T05:32:06;95552.56;;;-2.73;100.00
83308;BME280;73223;48.584;13.460;2024-01-15T05:34:31;95550.00;;;-3.01;100.00
83308;BME280;73223;48.584;13.460;2024-01-15T05:36:56;95555.06;;;-3.07;100.00
83308;BME280;73223;48.584;13.460;2024-01-15T05:39:22;95550.00;;;-2.76;100.00
83308;BME280;73223;48.584;13.460;2024-01-15T05:41:47;95551.69;;;-2.72;100.00
83308;BME280;73223;48.584;13.460;2024-01-15T05:44:12;95559.31;;;-2.92;100.00
83308;BME280;73223;48.584;13.460;2024-01-15T05:46:38;95545.75;;;-3.03;100.00
83308;BME280;73223;48.584;13.460;2024-01-15T05:49:03;95534.78;;;-2.84;100.00
83308;BME280;73223;48.584;13.460;2024-01-15T05:51:29;95542.38;;;-2.99;100.00
83308;BME280;73223;48.584;13.460;2024-01-15T05:53:54;95533.94;;;-2.75;100.00
83308;BME280;73223;48.584;13.460;2024-01-15T05:56:19;95531.41;;;-2.74;100.00
83308;BME280;73223;48.584;13.460;2024-01-15T05:58:44;95537.28;;;-2.49;100.00
83308;BME280;73223;48.584;13.460;2024-01-15T06:01:10;95544.09;;;-2.89;100.00
83308;BME280;73223;48.584;13.460;2024-01-15T06:03:35;95530.56;;;-2.70;100.00
83308;BME280;73223;48.584;13.460;2024-01-15T06:06:00;95528.88;;;-2.89;100.00
83308;BME280;73223;48.584;13.460;2024-01-15T06:08:25;95529.72;;;-2.98;100.00
83308;BME280;73223;48.584;13.460;2024-01-15T06:10:52;95517.06;;;-3.08;100.00
83308;BME280;73223;48.584;13.460;2024-01-15T06:13:18;95517.00;;;-2.67;100.00
83308;BME280;73223;48.584;13.460;2024-01-15T06:15:43;95515.34;;;-2.84;100.00
83308;BME280;73223;48.584;13.460;2024-01-15T06:18:08;95522.09;;;-3.21;100.00
83308;BME280;73223;48.584;13.460;2024-01-15T06:20:34;95515.31;;;-2.65;100.00
83308;BME280;73223;48.584;13.460;2024-01-15T06:22:59;95514.44;;;-2.51;100.00
83308;BME280;73223;48.584;13.460;2024-01-15T06:25:24;95511.91;;;-2.41;100.00
83308;BME280;73223;48.584;13.460;2024-01-15T06:27:49;95514.53;;;-2.87;100.00
83308;BME280;73223;48.584;13.460;2024-01-15T06:30:15;95511.13;;;-2.78;100.00
83308;BME280;73223;48.584;13.460;2024-01-15T06:32:40;95518.69;;;-2.42;100.00
83308;BME280;73223;48.584;13.460;2024-01-15T06:35:05;95516.16;;;-2.63;100.00
83308;BME280;73223;48.584;13.460;2024-01-15T06:37:31;95517.88;;;-2.52;100.00
83308;BME280;73223;48.584;13.460;2024-01-15T06:39:57;95525.41;;;-2.20;100.00
83308;BME280;73223;48.584;13.460;2024-01-15T06:42:23;95523.78;;;-2.56;100.00
83308;BME280;73223;48.584;13.460;2024-01-15T06:44:48;95524.56;;;-2.19;100.00
83308;BME280;73223;48.584;13.460;2024-01-15T06:47:14;95525.44;;;-2.46;100.00
83308;BME280;73223;48.584;13.460;2024-01-15T06:49:39;95533.91;;;-2.48;100.00
83308;BME280;73223;48.584;13.460;2024-01-15T06:52:05;95536.41;;;-2.22;100.00
83308;BME280;73223;48.584;13.460;2024-01-15T06:54:31;95542.38;;;-2.63;100.00
83308;BME280;73223;48.584;13.460;2024-01-15T06:56:56;95534.78;;;-2.83;100.00
83308;BME280;73223;48.584;13.460;2024-01-15T06:59:21;95532.25;;;-2.76;100.00
83308;BME280;73223;48.584;13.460;2024-01-15T07:01:47;95524.59;;;-2.43;100.00
83308;BME280;73223;48.584;13.460;2024-01-15T07:04:12;95524.63;;;-2.61;100.00
83308;BME280;73223;48.584;13.460;2024-01-15T07:06:38;95525.47;;;-2.82;100.00
83308;BME280;73223;48.584;13.460;2024-01-15T07:09:04;95533.09;;;-2.84;100.00
83308;BME280;73223;48.584;13.460;2024-01-15T07:11:29;95539.00;;;-2.53;100.00
83308;BME280;73223;48.584;13.460;2024-01-15T07:13:54;95540.63;;;-2.17;100.00
83308;BME280;73223;48.584;13.460;2024-01-15T07:16:19;95539.81;;;-2.34;100.00
83308;BME280;73223;48.584;13.460;2024-01-15T07:18:45;95527.97;;;-2.39;100.00
83308;BME280;73223;48.584;13.460;2024-01-15T07:21:10;95533.91;;;-2.37;100.00
83308;BME280;73223;48.584;13.460;2024-01-15T07:23:35;95532.25;;;-2.57;100.00
83308;BME280;73223;48.584;13.460;2024-01-15T07:26:00;95532.16;;;-2.20;100.00
83308;BME280;73223;48.584;13.460;2024-01-15T07:28:28;95538.94;;;-2.21;100.00
83308;BME280;73223;48.584;13.460;2024-01-15T07:30:54;95535.63;;;-2.58;100.00
83308;BME280;73223;48.584;13.460;2024-01-15T07:33:19;95526.44;;;-0.92;100.00
83308;BME280;73223;48.584;13.460;2024-01-15T07:35:44;95521.63;;;-0.28;100.00
83308;BME280;73223;48.584;13.460;2024-01-15T07:38:10;95525.16;;;-0.40;100.00
83308;BME280;73223;48.584;13.460;2024-01-15T07:40:36;95523.47;;;-0.42;100.00
83308;BME280;73223;48.584;13.460;2024-01-15T07:43:02;95521.78;;;-0.42;100.00
83308;BME280;73223;48.584;13.460;2024-01-15T07:45:27;95523.78;;;-0.79;100.00
83308;BME280;73223;48.584;13.460;2024-01-15T07:47:53;95518.31;;;-1.45;100.00
83308;BME280;73223;48.584;13.460;2024-01-15T07:50:18;95528.00;;;-0.75;100.00
83308;BME280;73223;48.584;13.460;2024-01-15T07:52:44;95518.84;;;-0.05;100.00
83308;BME280;73223;48.584;13.460;2024-01-15T07:55:09;95528.19;;;-1.00;100.00
83308;BME280;73223;48.584;13.460;2024-01-15T07:57:34;95530.97;;;-1.37;100.00
83308;BME280;73223;48.584;13.460;2024-01-15T08:00:01;95534.47;;;-1.58;100.00
83308;BME280;73223;48.584;13.460;2024-01-15T08:02:26;95532.00;;;-1.79;100.00
83308;BME280;73223;48.584;13.460;2024-01-15T08:04:52;95531.22;;;-1.89;100.00
83308;BME280;73223;48.584;13.460;2024-01-15T08:07:17;95529.44;;;-1.70;100.00
83308;BME280;73223;48.584;13.460;2024-01-15T08:09:43;95521.75;;;-1.56;100.00
83308;BME280;73223;48.584;13.460;2024-01-15T08:12:08;95524.25;;;-1.49;100.00
83308;BME280;73223;48.584;13.460;2024-01-15T08:14:35;95517.59;;;-1.68;100.00
83308;BME280;73223;48.584;13.460;2024-01-15T08:17:00;95519.94;;;-1.33;100.00
83308;BME280;73223;48.584;13.460;2024-01-15T08:19:26;95530.00;;;-1.15;100.00
83308;BME280;73223;48.584;13.460;2024-01-15T08:21:52;95528.50;;;-1.51;100.00
83308;BME280;73223;48.584;13.460;2024-01-15T08:24:17;95518.44;;;-1.67;100.00
83308;BME280;73223;48.584;13.460;2024-01-15T08:26:42;95518.97;;;-1.12;100.00
83308;BME280;73223;48.584;13.460;2024-01-15T08:29:08;95511.22;;;-0.97;100.00
83308;BME280;73223;48.584;13.460;2024-01-15T08:31:33;95510.38;;;-0.99;100.00
83308;BME280;73223;48.584;13.460;2024-01-15T08:33:58;95514.59;;;-0.95;100.00
83308;BME280;73223;48.584;13.460;2024-01-15T08:36:24;95516.31;;;-1.00;100.00
83308;BME280;73223;48.584;13.460;2024-01-15T08:38:50;95511.44;;;-1.27;100.00
83308;BME280;73223;48.584;13.460;2024-01-15T08:41:15;95508.09;;;-1.35;100.00
83308;BME280;73223;48.584;13.460;2024-01-15T08:43:40;95492.16;;;-1.63;100.00
83308;BME280;73223;48.584;13.460;2024-01-15T08:46:06;95484.47;;;-1.53;100.00
83308;BME280;73223;48.584;13.460;2024-01-15T08:48:31;95485.91;;;-1.11;100.00
83308;BME280;73223;48.584;13.460;2024-01-15T08:50:56;95491.97;;;-1.31;100.00
83308;BME280;73223;48.584;13.460;2024-01-15T08:53:22;95495.94;;;-0.92;100.00
83308;BME280;73223;48.584;13.460;2024-01-15T08:55:47;95503.69;;;-1.11;100.00
83308;BME280;73223;48.584;13.460;2024-01-15T08:58:13;95503.63;;;-1.06;100.00
83308;BME280;73223;48.584;13.460;2024-01-15T09:00:38;95498.34;;;-0.79;100.00
83308;BME280;73223;48.584;13.460;2024-01-15T09:03:04;95507.50;;;-1.85;100.00
83308;BME280;73223;48.584;13.460;2024-01-15T09:05:29;95505.44;;;-1.19;100.00
83308;BME280;73223;48.584;13.460;2024-01-15T09:07:54;95504.47;;;-1.04;100.00
83308;BME280;73223;48.584;13.460;2024-01-15T09:10:20;95509.38;;;-0.80;100.00
83308;BME280;73223;48.584;13.460;2024-01-15T09:12:46;95504.59;;;-1.19;100.00
83308;BME280;73223;48.584;13.460;2024-01-15T09:15:11;95499.22;;;-0.81;100.00
83308;BME280;73223;48.584;13.460;2024-01-15T09:17:37;95496.22;;;-1.35;100.00
83308;BME280;73223;48.584;13.460;2024-01-15T09:20:02;95490.97;;;-1.09;100.00
83308;BME280;73223;48.584;13.460;2024-01-15T09:22:29;95500.41;;;-1.26;100.00
83308;BME280;73223;48.584;13.460;2024-01-15T09:24:55;95496.94;;;-1.13;100.00
83308;BME280;73223;48.584;13.460;2024-01-15T09:27:20;95498.66;;;-1.21;100.00
83308;BME280;73223;48.584;13.460;2024-01-15T09:29:45;95493.53;;;-1.12;100.00
83308;BME280;73223;48.584;13.460;2024-01-15T09:32:11;95493.53;;;-1.11;100.00
83308;BME280;73223;48.584;13.460;2024-01-15T09:34:38;95502.75;;;-0.99;100.00
83308;BME280;73223;48.584;13.460;2024-01-15T09:37:03;95498.41;;;-0.89;100.00
83308;BME280;73223;48.584;13.460;2024-01-15T09:39:29;95498.63;;;-1.15;100.00
83308;BME280;73223;48.584;13.460;2024-01-15T09:41:54;95494.94;;;-0.78;100.00
83308;BME280;73223;48.584;13.460;2024-01-15T09:44:21;95496.22;;;-1.32;100.00
83308;BME280;73223;48.584;13.460;2024-01-15T09:46:46;95504.50;;;-1.07;100.00
83308;BME280;73223;48.584;13.460;2024-01-15T09:49:14;95507.72;;;-0.85;100.00
83308;BME280;73223;48.584;13.460;2024-01-15T09:51:41;95503.63;;;-1.03;100.00
83308;BME280;73223;48.584;13.460;2024-01-15T09:54:07;95511.06;;;-0.76;100.00
83308;BME280;73223;48.584;13.460;2024-01-15T09:56:33;95495.25;;;-1.14;100.00
83308;BME280;73223;48.584;13.460;2024-01-15T09:59:00;95492.56;;;-0.94;100.00
83308;BME280;73223;48.584;13.460;2024-01-15T10:01:25;95489.75;;;-0.67;100.00
83308;BME280;73223;48.584;13.460;2024-01-15T10:03:51;95483.94;;;-0.78;100.00
83308;BME280;73223;48.584;13.460;2024-01-15T10:06:18;95495.94;;;-0.92;100.00
83308;BME280;73223;48.584;13.460;2024-01-15T10:08:48;95486.59;;;-0.93;100.00
83308;BME280;73223;48.584;13.460;2024-01-15T10:11:13;95482.81;;;-0.53;100.00
83308;BME280;73223;48.584;13.460;2024-01-15T10:13:39;95476.00;;;-0.49;100.00
83308;BME280;73223;48.584;13.460;2024-01-15T10:16:04;95485.59;;;-0.74;100.00
83308;BME280;73223;48.584;13.460;2024-01-15T10:18:30;95479.72;;;-0.82;100.00
83308;BME280;73223;48.584;13.460;2024-01-15T10:20:56;95476.47;;;-0.96;100.00
83308;BME280;73223;48.584;13.460;2024-01-15T10:23:23;95491.78;;;-1.06;100.00
83308;BME280;73223;48.584;13.460;2024-01-15T10:25:48;95470.19;;;-0.60;100.00
83308;BME280;73223;48.584;13.460;2024-01-15T10:28:13;95481.34;;;-0.74;100.00
83308;BME280;73223;48.584;13.460;2024-01-15T10:30:39;95467.88;;;-0.85;100.00
83308;BME280;73223;48.584;13.460;2024-01-15T10:33:04;95464.16;;;-0.50;100.00
83308;BME280;73223;48.584;13.460;2024-01-15T10:35:31;95465.13;;;-0.65;100.00
83308;BME280;73223;48.584;13.460;2024-01-15T10:37:57;95471.00;;;-0.57;100.00
83308;BME280;73223;48.584;13.460;2024-01-15T10:40:23;95465.97;;;-0.61;100.00
83308;BME280;73223;48.584;13.460;2024-01-15T10:42:48;95456.44;;;-0.43;100.00
83308;BME280;73223;48.584;13.460;2024-01-15T10:45:14;95449.66;;;-0.42;100.00
83308;BME280;73223;48.584;13.460;2024-01-15T10:47:40;95436.94;;;-0.45;100.00
83308;BME280;73223;48.584;13.460;2024-01-15T10:50:06;95437.75;;;-0.42;100.00
83308;BME280;73223;48.584;13.460;2024-01-15T10:52:34;95434.28;;;-0.35;100.00
83308;BME280;73223;48.584;13.460;2024-01-15T10:55:00;95434.53;;;-0.56;100.00
83308;BME280;73223;48.584;13.460;2024-01-15T10:57:26;95439.47;;;-0.42;100.00
83308;BME280;73223;48.584;13.460;2024-01-15T10:59:52;95435.31;;;-0.51;100.00
83308;BME280;73223;48.584;13.460;2024-01-15T11:02:18;95435.09;;;-0.31;100.00
83308;BME280;73223;48.584;13.460;2024-01-15T11:04:43;95426.78;;;0.24;100.00
83308;BME280;73223;48.584;13.460;2024-01-15T11:07:10;95423.31;;;0.29;100.00
83308;BME280;73223;48.584;13.460;2024-01-15T11:09:37;95418.00;;;0.45;100.00
83308;BME280;73223;48.584;13.460;2024-01-15T11:12:12;95417.47;;;0.21;100.00
83308;BME280;73223;48.584;13.460;2024-01-15T11:14:48;95418.88;;;0.41;100.00
83308;BME280;73223;48.584;13.460;2024-01-15T11:17:15;95409.66;;;0.35;100.00
83308;BME280;73223;48.584;13.460;2024-01-15T11:19:45;95411.16;;;0.47;100.00
83308;BME280;73223;48.584;13.460;2024-01-15T11:24:57;95400.72;;;0.04;100.00
83308;BME280;73223;48.584;13.460;2024-01-15T11:27:51;95405.78;;;0.07;100.00
83308;BME280;73223;48.584;13.460;2024-01-15T11:30:18;95405.16;;;0.51;100.00
83308;BME280;73223;48.584;13.460;2024-01-15T11:32:46;95403.25;;;0.05;100.00
83308;BME280;73223;48.584;13.460;2024-01-15T11:35:13;95403.03;;;0.19;100.00
83308;BME280;73223;48.584;13.460;2024-01-15T11:43:02;95404.47;;;0.40;100.00
83308;BME280;73223;48.584;13.460;2024-01-15T11:45:30;95390.66;;;-0.06;100.00
83308;BME280;73223;48.584;13.460;2024-01-15T11:48:17;95385.59;;;0.53;100.00
83308;BME280;73223;48.584;13.460;2024-01-15T11:50:47;95383.34;;;0.31;100.00
83308;BME280;73223;48.584;13.460;2024-01-15T11:53:36;95378.50;;;0.15;100.00
83308;BME280;73223;48.584;13.460;2024-01-15T11:56:14;95388.09;;;0.54;100.00
83308;BME280;73223;48.584;13.460;2024-01-15T11:58:40;95386.31;;;0.01;100.00
83308;BME280;73223;48.584;13.460;2024-01-15T12:01:06;95387.69;;;0.25;100.00
83308;BME280;73223;48.584;13.460;2024-01-15T12:03:32;95381.31;;;-0.05;100.00
83308;BME280;73223;48.584;13.460;2024-01-15T12:05:58;95378.56;;;0.67;100.00
83308;BME280;73223;48.584;13.460;2024-01-15T12:08:25;95372.88;;;1.48;100.00
83308;BME280;73223;48.584;13.460;2024-01-15T12:10:52;95370.78;;;0.73;100.00
83308;BME280;73223;48.584;13.460;2024-01-15T12:13:17;95366.06;;;0.50;100.00
83308;BME280;73223;48.584;13.460;2024-01-15T12:15:44;95371.34;;;0.90;100.00
83308;BME280;73223;48.584;13.460;2024-01-15T12:18:14;95363.31;;;0.62;100.00
83308;BME280;73223;48.584;13.460;2024-01-15T12:20:40;95364.06;;;0.15;100.00
83308;BME280;73223;48.584;13.460;2024-01-15T12:23:06;95370.06;;;0.66;100.00
83308;BME280;73223;48.584;13.460;2024-01-15T12:25:32;95364.72;;;0.28;100.00
83308;BME280;73223;48.584;13.460;2024-01-15T12:27:59;95356.78;;;0.48;100.00
83308;BME280;73223;48.584;13.460;2024-01-15T12:30:29;95355.09;;;0.45;100.00
83308;BME280;73223;48.584;13.460;2024-01-15T12:32:58;95353.72;;;0.78;100.00
83308;BME280;73223;48.584;13.460;2024-01-15T12:35:24;95354.09;;;0.54;100.00
83308;BME280;73223;48.584;13.460;2024-01-15T12:37:51;95356.47;;;0.66;100.00
83308;BME280;73223;48.584;13.460;2024-01-15T12:40:21;95353.41;;;0.46;100.00
83308;BME280;73223;48.584;13.460;2024-01-15T12:42:47;95355.09;;;0.45;100.00